sensor_id;sensor_type;location;lat;lon;timestamp;pressure;altitude;pressure_sealevel;temperature;humidity
53300;BME280;39187;48.476;8.310;2022-12-18T00:01:28;91842.66;;;-7.25;100.00
53300;BME280;39187;48.476;8.310;2022-12-18T00:03:55;91848.00;;;-7.36;100.00
53300;BME280;39187;48.476;8.310;2022-12-18T00:06:22;91846.13;;;-7.44;100.00
53300;BME280;39187;48.476;8.310;2022-12-18T00:08:48;91848.13;;;-7.27;100.00
53300;BME280;39187;48.476;8.310;2022-12-18T00:11:19;91850.31;;;-7.34;100.00
53300;BME280;39187;48.476;8.310;2022-12-18T00:13:46;91848.13;;;-7.27;100.00
53300;BME280;39187;48.476;8.310;2022-12-18T00:16:15;91849.09;;;-7.50;100.00
53300;BME280;39187;48.476;8.310;2022-12-18T00:18:41;91854.91;;;-7.31;100.00
53300;BME280;39187;48.476;8.310;2022-12-18T00:21:10;91855.38;;;-7.15;100.00
53300;BME280;39187;48.476;8.310;2022-12-18T00:23:37;91865.81;;;-7.20;100.00
53300;BME280;39187;48.476;8.310;2022-12-18T00:26:06;91864.19;;;-7.16;100.00
53300;BME280;39187;48.476;8.310;2022-12-18T00:28:32;91862.28;;;-7.38;100.00
53300;BME280;39187;48.476;8.310;2022-12-18T00:31:10;91857.56;;;-7.09;100.00
53300;BME280;39187;48.476;8.310;2022-12-18T00:33:36;91868.50;;;-7.25;100.00
53300;BME280;39187;48.476;8.310;2022-12-18T00:36:07;91868.63;;;-7.17;100.00
53300;BME280;39187;48.476;8.310;2022-12-18T00:38:34;91855.09;;;-7.14;100.00
53300;BME280;39187;48.476;8.310;2022-12-18T00:41:00;91852.34;;;-7.45;100.00
53300;BME280;39187;48.476;8.310;2022-12-18T00:43:25;91856.53;;;-7.35;100.00
53300;BME280;39187;48.476;8.310;2022-12-18T00:45:51;91860.19;;;-7.36;100.00
53300;BME280;39187;48.476;8.310;2022-12-18T00:48:16;91852.63;;;-7.33;100.00
53300;BME280;39187;48.476;8.310;2022-12-18T00:50:42;91851.19;;;-7.25;100.00
53300;BME280;39187;48.476;8.310;2022-12-18T00:53:11;91857.78;;;-7.19;100.00
53300;BME280;39187;48.476;8.310;2022-12-18T00:55:39;91864.97;;;-7.30;100.00
53300;BME280;39187;48.476;8.310;2022-12-18T00:58:04;91853.88;;;-7.44;100.00
53300;BME280;39187;48.476;8.310;2022-12-18T01:00:33;91859.50;;;-7.42;100.00
53300;BME280;39187;48.476;8.310;2022-12-18T01:02:58;91859.13;;;-7.35;100.00
53300;BME280;39187;48.476;8.310;2022-12-18T01:05:25;91853.66;;;-7.47;100.00
53300;BME280;39187;48.476;8.310;2022-12-18T01:07:51;91856.44;;;-7.16;100.00
53300;BME280;39187;48.476;8.310;2022-12-18T01:10:17;91849.63;;;-7.12;100.00
53300;BME280;39187;48.476;8.310;2022-12-18T01:12:43;91848.22;;;-7.32;100.00
53300;BME280;39187;48.476;8.310;2022-12-18T01:15:09;91843.41;;;-7.11;100.00
53300;BME280;39187;48.476;8.310;2022-12-18T01:17:35;91846.84;;;-7.02;100.00
53300;BME280;39187;48.476;8.310;2022-12-18T01:20:01;91851.75;;;-7.28;100.00
53300;BME280;39187;48.476;8.310;2022-12-18T01:22:27;91853.19;;;-7.36;100.00
53300;BME280;39187;48.476;8.310;2022-12-18T01:24:52;91849.53;;;-7.35;100.00
53300;BME280;39187;48.476;8.310;2022-12-18T01:27:18;91849.16;;;-7.42;100.00
53300;BME280;39187;48.476;8.310;2022-12-18T01:29:43;91851.84;;;-7.19;100.00
53300;BME280;39187;48.476;8.310;2022-12-18T01:32:09;91858.50;;;-6.91;100.00
53300;BME280;39187;48.476;8.310;2022-12-18T01:34:38;91854.34;;;-6.78;100.00
53300;BME280;39187;48.476;8.310;2022-12-18T01:37:04;91858.94;;;-7.11;100.00
53300;BME280;39187;48.476;8.310;2022-12-18T01:39:31;91853.25;;;-6.86;100.00
53300;BME280;39187;48.476;8.310;2022-12-18T01:42:02;91860.25;;;-7.14;100.00
53300;BME280;39187;48.476;8.310;2022-12-18T01:47:28;91866.34;;;-6.82;100.00
53300;BME280;39187;48.476;8.310;2022-12-18T01:49:57;91874.19;;;-6.74;100.00
53300;BME280;39187;48.476;8.310;2022-12-18T01:52:26;91870.25;;;-6.71;100.00
53300;BME280;39187;48.476;8.310;2022-12-18T01:54:54;91872.75;;;-6.66;100.00
53300;BME280;39187;48.476;8.310;2022-12-18T01:57:20;91876.22;;;-6.49;100.00
53300;BME280;39187;48.476;8.310;2022-12-18T01:59:50;91868.94;;;-6.82;100.00
53300;BME280;39187;48.476;8.310;2022-12-18T02:02:18;91873.94;;;-6.50;100.00
53300;BME280;39187;48.476;8.310;2022-12-18T02:04:44;91866.00;;;-6.54;100.00
53300;BME280;39187;48.476;8.310;2022-12-18T02:13:32;91860.00;;;-6.76;100.00
53300;BME280;39187;48.476;8.310;2022-12-18T02:18:50;91867.38;;;-6.70;100.00
53300;BME280;39187;48.476;8.310;2022-12-18T02:21:22;91863.09;;;-6.52;100.00
53300;BME280;39187;48.476;8.310;2022-12-18T02:24:14;91870.28;;;-6.85;100.00
53300;BME280;39187;48.476;8.310;2022-12-18T02:26:50;91862.53;;;-6.85;100.00
53300;BME280;39187;48.476;8.310;2022-12-18T02:29:22;91864.47;;;-7.04;100.00
53300;BME280;39187;48.476;8.310;2022-12-18T02:31:52;91867.91;;;-7.09;100.00
53300;BME280;39187;48.476;8.310;2022-12-18T02:34:22;91867.34;;;-7.06;100.00
53300;BME280;39187;48.476;8.310;2022-12-18T02:36:50;91870.22;;;-7.21;100.00
53300;BME280;39187;48.476;8.310;2022-12-18T02:39:17;91872.03;;;-7.08;100.00
53300;BME280;39187;48.476;8.310;2022-12-18T02:41:46;91873.56;;;-6.93;100.00
53300;BME280;39187;48.476;8.310;2022-12-18T02:44:13;91871.91;;;-6.75;100.00
53300;BME280;39187;48.476;8.310;2022-12-18T02:46:48;91868.28;;;-6.88;100.00
53300;BME280;39187;48.476;8.310;2022-12-18T02:57:57;91862.94;;;-6.92;100.00
53300;BME280;39187;48.476;8.310;2022-12-18T03:00:39;91868.13;;;-7.05;100.00
53300;BME280;39187;48.476;8.310;2022-12-18T03:03:14;91857.00;;;-6.92;100.00
53300;BME280;39187;48.476;8.310;2022-12-18T03:06:05;91864.53;;;-6.96;100.00
53300;BME280;39187;48.476;8.310;2022-12-18T03:08:37;91873.88;;;-7.22;100.00
53300;BME280;39187;48.476;8.310;2022-12-18T03:11:11;91875.78;;;-7.00;100.00
53300;BME280;39187;48.476;8.310;2022-12-18T03:13:48;91876.44;;;-7.08;100.00
53300;BME280;39187;48.476;8.310;2022-12-18T03:16:22;91882.09;;;-6.93;100.00
53300;BME280;39187;48.476;8.310;2022-12-18T03:19:09;91877.59;;;-7.01;100.00
53300;BME280;39187;48.476;8.310;2022-12-18T03:21:42;91880.28;;;-7.06;100.00
53300;BME280;39187;48.476;8.310;2022-12-18T03:24:09;91876.38;;;-7.31;100.00
53300;BME280;39187;48.476;8.310;2022-12-18T03:26:40;91881.34;;;-7.20;100.00
53300;BME280;39187;48.476;8.310;2022-12-18T03:29:10;91867.25;;;-7.28;100.00
53300;BME280;39187;48.476;8.310;2022-12-18T03:31:40;91869.38;;;-7.30;100.00
53300;BME280;39187;48.476;8.310;2022-12-18T03:34:21;91872.53;;;-7.33;100.00
53300;BME280;39187;48.476;8.310;2022-12-18T03:36:48;91873.59;;;-7.34;100.00
53300;BME280;39187;48.476;8.310;2022-12-18T03:39:14;91865.53;;;-7.19;100.00
53300;BME280;39187;48.476;8.310;2022-12-18T03:41:45;91858.44;;;-7.54;100.00
53300;BME280;39187;48.476;8.310;2022-12-18T03:44:17;91872.44;;;-7.28;100.00
53300;BME280;39187;48.476;8.310;2022-12-18T03:49:38;91871.28;;;-7.08;100.00
53300;BME280;39187;48.476;8.310;2022-12-18T03:52:20;91873.94;;;-7.00;100.00
53300;BME280;39187;48.476;8.310;2022-12-18T03:54:49;91876.44;;;-6.95;100.00
53300;BME280;39187;48.476;8.310;2022-12-18T03:57:18;91869.94;;;-7.06;100.00
53300;BME280;39187;48.476;8.310;2022-12-18T03:59:47;91867.47;;;-7.11;100.00
53300;BME280;39187;48.476;8.310;2022-12-18T04:02:16;91873.06;;;-6.95;100.00
53300;BME280;39187;48.476;8.310;2022-12-18T04:04:43;91877.88;;;-7.02;100.00
53300;BME280;39187;48.476;8.310;2022-12-18T04:07:10;91870.03;;;-7.11;100.00
53300;BME280;39187;48.476;8.310;2022-12-18T04:09:38;91872.03;;;-7.08;98.44
53300;BME280;39187;48.476;8.310;2022-12-18T04:12:04;91872.50;;;-6.92;95.09
53300;BME280;39187;48.476;8.310;2022-12-18T04:14:30;91870.22;;;-6.94;95.44
53300;BME280;39187;48.476;8.310;2022-12-18T04:17:01;91864.41;;;-6.77;92.74
53300;BME280;39187;48.476;8.310;2022-12-18T04:19:27;91860.41;;;-6.83;91.43
53300;BME280;39187;48.476;8.310;2022-12-18T04:21:53;91865.13;;;-6.85;90.38
53300;BME280;39187;48.476;8.310;2022-12-18T04:24:18;91867.78;;;-6.76;89.87
53300;BME280;39187;48.476;8.310;2022-12-18T04:26:44;91861.28;;;-6.52;88.14
53300;BME280;39187;48.476;8.310;2022-12-18T04:29:09;91863.09;;;-6.52;86.99
53300;BME280;39187;48.476;8.310;2022-12-18T04:31:35;91850.97;;;-6.65;85.84
53300;BME280;39187;48.476;8.310;2022-12-18T04:34:01;91855.09;;;-6.64;86.09
53300;BME280;39187;48.476;8.310;2022-12-18T04:36:27;91855.94;;;-6.33;86.09
53300;BME280;39187;48.476;8.310;2022-12-18T04:38:52;91855.13;;;-6.42;86.92
53300;BME280;39187;48.476;8.310;2022-12-18T04:41:18;91860.09;;;-6.45;84.84
53300;BME280;39187;48.476;8.310;2022-12-18T04:43:43;91849.25;;;-6.34;85.26
53300;BME280;39187;48.476;8.310;2022-12-18T04:46:09;91848.25;;;-6.46;84.63
53300;BME280;39187;48.476;8.310;2022-12-18T04:48:35;91851.00;;;-6.43;85.22
53300;BME280;39187;48.476;8.310;2022-12-18T04:51:00;91853.81;;;-6.53;87.68
53300;BME280;39187;48.476;8.310;2022-12-18T04:53:26;91848.66;;;-6.53;87.31
53300;BME280;39187;48.476;8.310;2022-12-18T04:56:06;91846.78;;;-6.75;89.06
53300;BME280;39187;48.476;8.310;2022-12-18T04:58:31;91849.28;;;-6.83;91.11
53300;BME280;39187;48.476;8.310;2022-12-18T05:00:57;91854.41;;;-6.56;89.85
53300;BME280;39187;48.476;8.310;2022-12-18T05:03:22;91855.31;;;-6.52;90.08
53300;BME280;39187;48.476;8.310;2022-12-18T05:05:51;91855.28;;;-6.61;90.41
53300;BME280;39187;48.476;8.310;2022-12-18T05:08:17;91860.06;;;-6.54;90.32
53300;BME280;39187;48.476;8.310;2022-12-18T05:10:43;91859.44;;;-6.51;89.59
53300;BME280;39187;48.476;8.310;2022-12-18T05:13:08;91852.56;;;-6.56;89.42
53300;BME280;39187;48.476;8.310;2022-12-18T05:15:34;91854.50;;;-6.61;89.69
53300;BME280;39187;48.476;8.310;2022-12-18T05:18:00;91858.72;;;-6.65;89.43
53300;BME280;39187;48.476;8.310;2022-12-18T05:20:26;91859.69;;;-6.61;89.36
53300;BME280;39187;48.476;8.310;2022-12-18T05:22:53;91849.63;;;-6.63;89.61
53300;BME280;39187;48.476;8.310;2022-12-18T05:25:19;91847.78;;;-6.62;89.71
53300;BME280;39187;48.476;8.310;2022-12-18T05:27:45;91844.72;;;-6.64;89.62
53300;BME280;39187;48.476;8.310;2022-12-18T05:30:12;91849.75;;;-6.68;89.43
53300;BME280;39187;48.476;8.310;2022-12-18T05:32:38;91846.00;;;-6.75;89.25
53300;BME280;39187;48.476;8.310;2022-12-18T05:35:04;91854.94;;;-6.81;90.06
53300;BME280;39187;48.476;8.310;2022-12-18T05:37:30;91850.94;;;-6.88;90.02
53300;BME280;39187;48.476;8.310;2022-12-18T05:39:56;91864.25;;;-6.94;89.72
53300;BME280;39187;48.476;8.310;2022-12-18T05:42:21;91857.38;;;-6.99;89.44
53300;BME280;39187;48.476;8.310;2022-12-18T05:44:47;91857.78;;;-7.05;89.67
53300;BME280;39187;48.476;8.310;2022-12-18T05:47:13;91857.84;;;-7.10;89.80
53300;BME280;39187;48.476;8.310;2022-12-18T05:49:38;91849.91;;;-7.14;89.16
53300;BME280;39187;48.476;8.310;2022-12-18T05:52:04;91849.25;;;-7.19;88.86
53300;BME280;39187;48.476;8.310;2022-12-18T05:54:29;91857.13;;;-7.24;89.43
53300;BME280;39187;48.476;8.310;2022-12-18T05:56:56;91864.69;;;-7.69;91.31
53300;BME280;39187;48.476;8.310;2022-12-18T05:59:22;91861.53;;;-7.52;91.37
53300;BME280;39187;48.476;8.310;2022-12-18T06:01:48;91862.78;;;-7.50;90.95
53300;BME280;39187;48.476;8.310;2022-12-18T06:04:14;91863.81;;;-7.51;91.41
53300;BME280;39187;48.476;8.310;2022-12-18T06:06:39;91873.19;;;-7.55;90.70
53300;BME280;39187;48.476;8.310;2022-12-18T06:09:05;91875.41;;;-7.62;90.13
53300;BME280;39187;48.476;8.310;2022-12-18T06:11:35;91872.91;;;-7.67;90.24
53300;BME280;39187;48.476;8.310;2022-12-18T06:14:01;91883.22;;;-7.67;90.23
53300;BME280;39187;48.476;8.310;2022-12-18T06:16:27;91882.75;;;-7.69;90.16
53300;BME280;39187;48.476;8.310;2022-12-18T06:18:56;91879.78;;;-7.76;89.15
53300;BME280;39187;48.476;8.310;2022-12-18T06:21:22;91887.31;;;-7.80;88.93
53300;BME280;39187;48.476;8.310;2022-12-18T06:23:47;91888.09;;;-7.79;90.05
53300;BME280;39187;48.476;8.310;2022-12-18T06:26:14;91896.34;;;-7.77;90.72
53300;BME280;39187;48.476;8.310;2022-12-18T06:28:39;91897.28;;;-7.73;91.00
53300;BME280;39187;48.476;8.310;2022-12-18T06:31:06;91906.31;;;-7.71;91.27
53300;BME280;39187;48.476;8.310;2022-12-18T06:33:33;91902.38;;;-7.68;91.99
53300;BME280;39187;48.476;8.310;2022-12-18T06:36:04;91915.00;;;-7.66;91.67
53300;BME280;39187;48.476;8.310;2022-12-18T06:38:31;91907.47;;;-7.63;92.28
53300;BME280;39187;48.476;8.310;2022-12-18T06:40:57;91910.22;;;-7.59;92.44
53300;BME280;39187;48.476;8.310;2022-12-18T06:43:23;91919.25;;;-7.57;92.46
53300;BME280;39187;48.476;8.310;2022-12-18T06:45:48;91917.13;;;-7.55;92.11
53300;BME280;39187;48.476;8.310;2022-12-18T06:48:19;91925.75;;;-7.59;93.03
53300;BME280;39187;48.476;8.310;2022-12-18T06:50:45;91926.50;;;-7.59;92.71
53300;BME280;39187;48.476;8.310;2022-12-18T06:53:11;91927.09;;;-7.62;92.69
53300;BME280;39187;48.476;8.310;2022-12-18T06:55:36;91928.13;;;-7.63;92.82
53300;BME280;39187;48.476;8.310;2022-12-18T06:58:02;91933.88;;;-7.66;93.28
53300;BME280;39187;48.476;8.310;2022-12-18T07:00:28;91931.94;;;-7.60;93.40
53300;BME280;39187;48.476;8.310;2022-12-18T07:02:53;91936.34;;;-7.61;92.90
53300;BME280;39187;48.476;8.310;2022-12-18T07:05:18;91935.31;;;-7.60;92.80
53300;BME280;39187;48.476;8.310;2022-12-18T07:07:44;91937.91;;;-7.60;92.95
53300;BME280;39187;48.476;8.310;2022-12-18T07:10:09;91936.34;;;-7.61;92.58
53300;BME280;39187;48.476;8.310;2022-12-18T07:12:35;91930.22;;;-7.65;93.28
53300;BME280;39187;48.476;8.310;2022-12-18T07:15:01;91935.81;;;-7.58;92.86
53300;BME280;39187;48.476;8.310;2022-12-18T07:17:26;91930.03;;;-7.55;93.12
53300;BME280;39187;48.476;8.310;2022-12-18T07:19:52;91932.56;;;-7.50;93.21
53300;BME280;39187;48.476;8.310;2022-12-18T07:22:17;91934.88;;;-7.35;93.30
53300;BME280;39187;48.476;8.310;2022-12-18T07:24:43;91933.28;;;-7.17;93.44
53300;BME280;39187;48.476;8.310;2022-12-18T07:27:11;91929.72;;;-6.94;93.99
53300;BME280;39187;48.476;8.310;2022-12-18T07:29:36;91937.13;;;-6.65;94.53
53300;BME280;39187;48.476;8.310;2022-12-18T07:32:02;91935.00;;;-6.35;95.13
53300;BME280;39187;48.476;8.310;2022-12-18T07:34:27;91931.44;;;-6.03;95.18
53300;BME280;39187;48.476;8.310;2022-12-18T07:36:53;91941.41;;;-5.66;95.92
53300;BME280;39187;48.476;8.310;2022-12-18T07:39:18;91952.28;;;-5.33;95.59
53300;BME280;39187;48.476;8.310;2022-12-18T07:41:44;91950.59;;;-4.98;95.61
53300;BME280;39187;48.476;8.310;2022-12-18T07:44:29;91953.00;;;-4.62;95.38
53300;BME280;39187;48.476;8.310;2022-12-18T07:46:55;91949.69;;;-4.37;95.32
53300;BME280;39187;48.476;8.310;2022-12-18T07:49:20;91944.38;;;-4.06;94.54
53300;BME280;39187;48.476;8.310;2022-12-18T07:51:48;91949.41;;;-3.84;92.63
53300;BME280;39187;48.476;8.310;2022-12-18T07:54:14;91956.28;;;-3.62;92.39
53300;BME280;39187;48.476;8.310;2022-12-18T07:56:40;91957.63;;;-3.39;91.51
53300;BME280;39187;48.476;8.310;2022-12-18T07:59:05;91960.94;;;-3.12;90.21
53300;BME280;39187;48.476;8.310;2022-12-18T08:01:31;91963.03;;;-2.89;88.60
53300;BME280;39187;48.476;8.310;2022-12-18T08:03:58;91968.84;;;-2.54;88.09
53300;BME280;39187;48.476;8.310;2022-12-18T08:06:24;91967.25;;;-2.37;85.56
53300;BME280;39187;48.476;8.310;2022-12-18T08:08:51;91965.13;;;-2.15;82.71
53300;BME280;39187;48.476;8.310;2022-12-18T08:11:17;91967.44;;;-1.92;81.74
53300;BME280;39187;48.476;8.310;2022-12-18T08:13:43;91967.66;;;-1.85;79.16
53300;BME280;39187;48.476;8.310;2022-12-18T08:16:08;91970.94;;;-1.68;78.12
53300;BME280;39187;48.476;8.310;2022-12-18T08:18:35;91969.16;;;-1.55;76.58
53300;BME280;39187;48.476;8.310;2022-12-18T08:21:11;91974.84;;;-1.41;75.22
53300;BME280;39187;48.476;8.310;2022-12-18T08:23:38;91969.38;;;-1.15;74.68
53300;BME280;39187;48.476;8.310;2022-12-18T08:26:03;91966.69;;;-1.06;74.06
53300;BME280;39187;48.476;8.310;2022-12-18T08:28:29;91966.56;;;-0.77;73.68
53300;BME280;39187;48.476;8.310;2022-12-18T08:30:54;91964.81;;;-0.73;72.75
53300;BME280;39187;48.476;8.310;2022-12-18T08:33:20;91963.28;;;-0.37;71.87
53300;BME280;39187;48.476;8.310;2022-12-18T08:35:45;91956.75;;;-0.31;70.45
53300;BME280;39187;48.476;8.310;2022-12-18T08:38:11;91952.81;;;-0.01;70.64
53300;BME280;39187;48.476;8.310;2022-12-18T08:40:36;91953.13;;;0.10;70.10
53300;BME280;39187;48.476;8.310;2022-12-18T08:43:02;91959.88;;;0.23;70.67
53300;BME280;39187;48.476;8.310;2022-12-18T08:45:46;91948.72;;;0.66;70.28
53300;BME280;39187;48.476;8.310;2022-12-18T08:48:11;91945.66;;;0.92;70.14
53300;BME280;39187;48.476;8.310;2022-12-18T08:50:38;91931.88;;;1.10;68.47
53300;BME280;39187;48.476;8.310;2022-12-18T08:53:04;91936.22;;;1.18;67.90
53300;BME280;39187;48.476;8.310;2022-12-18T08:55:29;91935.63;;;1.25;68.28
53300;BME280;39187;48.476;8.310;2022-12-18T08:57:55;91933.69;;;1.38;67.43
53300;BME280;39187;48.476;8.310;2022-12-18T09:00:21;91933.28;;;1.51;68.67
53300;BME280;39187;48.476;8.310;2022-12-18T09:02:46;91937.66;;;1.79;69.62
53300;BME280;39187;48.476;8.310;2022-12-18T09:05:12;91935.44;;;1.96;69.56
53300;BME280;39187;48.476;8.310;2022-12-18T09:07:37;91924.38;;;2.07;68.98
53300;BME280;39187;48.476;8.310;2022-12-18T09:10:03;91920.09;;;2.18;69.17
53300;BME280;39187;48.476;8.310;2022-12-18T09:12:29;91929.75;;;2.29;67.56
53300;BME280;39187;48.476;8.310;2022-12-18T09:14:55;91933.91;;;2.30;67.13
53300;BME280;39187;48.476;8.310;2022-12-18T09:17:22;91938.41;;;2.30;66.03
53300;BME280;39187;48.476;8.310;2022-12-18T09:19:47;91938.66;;;2.25;66.92
53300;BME280;39187;48.476;8.310;2022-12-18T09:22:13;91937.25;;;2.31;67.41
53300;BME280;39187;48.476;8.310;2022-12-18T09:24:38;91941.66;;;2.42;68.05
53300;BME280;39187;48.476;8.310;2022-12-18T09:27:04;91936.88;;;2.48;68.80
53300;BME280;39187;48.476;8.310;2022-12-18T09:29:30;91953.19;;;2.57;69.99
53300;BME280;39187;48.476;8.310;2022-12-18T09:31:55;91947.47;;;2.71;69.80
53300;BME280;39187;48.476;8.310;2022-12-18T09:34:21;91949.59;;;2.85;69.83
53300;BME280;39187;48.476;8.310;2022-12-18T09:36:47;91950.94;;;2.94;69.62
53300;BME280;39187;48.476;8.310;2022-12-18T09:39:14;91963.91;;;3.06;69.85
53300;BME280;39187;48.476;8.310;2022-12-18T09:41:41;91951.38;;;3.19;69.48
53300;BME280;39187;48.476;8.310;2022-12-18T09:47:08;91951.97;;;3.54;69.63
53300;BME280;39187;48.476;8.310;2022-12-18T09:49:46;91960.97;;;3.76;70.02
53300;BME280;39187;48.476;8.310;2022-12-18T09:52:15;91960.50;;;3.93;69.35
53300;BME280;39187;48.476;8.310;2022-12-18T09:54:50;91955.84;;;4.10;69.59
53300;BME280;39187;48.476;8.310;2022-12-18T09:57:20;91955.69;;;4.25;70.55
53300;BME280;39187;48.476;8.310;2022-12-18T09:59:54;91964.25;;;4.45;70.55
53300;BME280;39187;48.476;8.310;2022-12-18T10:02:23;91968.19;;;4.58;70.51
53300;BME280;39187;48.476;8.310;2022-12-18T10:05:13;91968.72;;;4.71;70.32
53300;BME280;39187;48.476;8.310;2022-12-18T10:08:02;91969.22;;;4.80;69.86
53300;BME280;39187;48.476;8.310;2022-12-18T10:10:50;91974.19;;;4.85;70.14
53300;BME280;39187;48.476;8.310;2022-12-18T10:16:34;91970.50;;;4.93;71.24
53300;BME280;39187;48.476;8.310;2022-12-18T10:19:39;91979.03;;;4.83;71.74
53300;BME280;39187;48.476;8.310;2022-12-18T10:25:05;91977.97;;;4.58;72.98
53300;BME280;39187;48.476;8.310;2022-12-18T10:27:37;91974.03;;;4.44;73.32
53300;BME280;39187;48.476;8.310;2022-12-18T10:30:12;91973.81;;;4.30;73.77
53300;BME280;39187;48.476;8.310;2022-12-18T10:32:39;91975.59;;;4.23;74.74
53300;BME280;39187;48.476;8.310;2022-12-18T10:35:07;91964.91;;;4.12;76.08
53300;BME280;39187;48.476;8.310;2022-12-18T10:37:35;91962.13;;;4.01;77.21
53300;BME280;39187;48.476;8.310;2022-12-18T10:40:12;91954.81;;;3.91;78.05
53300;BME280;39187;48.476;8.310;2022-12-18T10:42:39;91960.25;;;3.79;79.40
53300;BME280;39187;48.476;8.310;2022-12-18T10:45:15;91963.19;;;3.74;79.46
53300;BME280;39187;48.476;8.310;2022-12-18T10:47:46;91956.72;;;3.68;78.77
53300;BME280;39187;48.476;8.310;2022-12-18T10:50:27;91952.84;;;3.62;78.63
53300;BME280;39187;48.476;8.310;2022-12-18T10:52:56;91955.38;;;3.55;78.64
53300;BME280;39187;48.476;8.310;2022-12-18T10:55:22;91959.09;;;3.54;79.36
53300;BME280;39187;48.476;8.310;2022-12-18T10:57:50;91956.78;;;3.49;79.52
53300;BME280;39187;48.476;8.310;2022-12-18T11:00:28;91953.34;;;3.45;81.78
53300;BME280;39187;48.476;8.310;2022-12-18T11:02:54;91954.19;;;3.30;85.01
53300;BME280;39187;48.476;8.310;2022-12-18T11:05:32;91955.75;;;3.34;84.15
53300;BME280;39187;48.476;8.310;2022-12-18T11:07:59;91964.38;;;3.31;83.75
53300;BME280;39187;48.476;8.310;2022-12-18T11:10:28;91955.28;;;3.29;82.66
53300;BME280;39187;48.476;8.310;2022-12-18T11:12:56;91960.56;;;3.29;82.76
53300;BME280;39187;48.476;8.310;2022-12-18T11:15:33;91962.03;;;3.26;83.99
53300;BME280;39187;48.476;8.310;2022-12-18T11:17:59;91959.41;;;3.26;82.82
53300;BME280;39187;48.476;8.310;2022-12-18T11:20:31;91949.72;;;3.11;80.67
53300;BME280;39187;48.476;8.310;2022-12-18T11:23:12;91948.16;;;3.06;80.00
53300;BME280;39187;48.476;8.310;2022-12-18T11:25:39;91947.50;;;3.13;82.01
53300;BME280;39187;48.476;8.310;2022-12-18T11:28:25;91951.94;;;3.09;84.69
53300;BME280;39187;48.476;8.310;2022-12-18T11:31:18;91956.78;;;3.07;84.93
53300;BME280;39187;48.476;8.310;2022-12-18T11:33:52;91956.78;;;3.07;85.71
53300;BME280;39187;48.476;8.310;2022-12-18T11:36:20;91960.88;;;3.04;88.96
53300;BME280;39187;48.476;8.310;2022-12-18T11:38:48;91963.16;;;3.06;89.75
53300;BME280;39187;48.476;8.310;2022-12-18T11:44:14;91956.59;;;2.96;91.22
53300;BME280;39187;48.476;8.310;2022-12-18T11:46:49;91960.09;;;3.04;89.56
53300;BME280;39187;48.476;8.310;2022-12-18T11:49:21;91953.75;;;3.05;89.38
53300;BME280;39187;48.476;8.310;2022-12-18T11:54:35;91952.97;;;3.04;90.89
53300;BME280;39187;48.476;8.310;2022-12-18T12:00:01;91939.78;;;3.01;91.34
53300;BME280;39187;48.476;8.310;2022-12-18T12:05:49;91932.56;;;2.98;89.50
53300;BME280;39187;48.476;8.310;2022-12-18T12:17:16;91926.28;;;2.64;80.11
53300;BME280;39187;48.476;8.310;2022-12-18T12:22:46;91930.88;;;2.67;78.48
53300;BME280;39187;48.476;8.310;2022-12-18T12:34:00;91933.97;;;2.34;75.11
53300;BME280;39187;48.476;8.310;2022-12-18T12:36:36;91943.56;;;2.26;76.38
53300;BME280;39187;48.476;8.310;2022-12-18T12:39:07;91946.28;;;2.49;71.12
53300;BME280;39187;48.476;8.310;2022-12-18T12:41:36;91943.28;;;2.31;70.42
53300;BME280;39187;48.476;8.310;2022-12-18T12:44:34;91948.31;;;2.56;69.17
53300;BME280;39187;48.476;8.310;2022-12-18T12:47:25;91946.38;;;2.18;71.06
53300;BME280;39187;48.476;8.310;2022-12-18T12:49:54;91945.06;;;2.62;71.09
53300;BME280;39187;48.476;8.310;2022-12-18T12:54:51;91944.97;;;2.39;69.80
53300;BME280;39187;48.476;8.310;2022-12-18T12:58:08;91944.03;;;2.32;71.93
53300;BME280;39187;48.476;8.310;2022-12-18T13:00:41;91944.81;;;2.52;71.71
53300;BME280;39187;48.476;8.310;2022-12-18T13:04:08;91936.59;;;2.34;74.56
53300;BME280;39187;48.476;8.310;2022-12-18T13:06:33;91944.28;;;2.42;75.37
53300;BME280;39187;48.476;8.310;2022-12-18T13:09:02;91934.31;;;2.52;75.18
53300;BME280;39187;48.476;8.310;2022-12-18T13:11:41;91934.16;;;2.25;75.15
53300;BME280;39187;48.476;8.310;2022-12-18T13:14:39;91938.94;;;2.39;76.10
53300;BME280;39187;48.476;8.310;2022-12-18T13:22:47;91933.56;;;1.97;78.55
53300;BME280;39187;48.476;8.310;2022-12-18T13:28:09;91940.75;;;2.00;78.04
53300;BME280;39187;48.476;8.310;2022-12-18T13:38:34;91930.84;;;1.93;78.95
53300;BME280;39187;48.476;8.310;2022-12-18T13:41:01;91930.34;;;2.04;77.13
53300;BME280;39187;48.476;8.310;2022-12-18T13:43:30;91932.63;;;2.24;76.26
53300;BME280;39187;48.476;8.310;2022-12-18T13:46:00;91927.72;;;1.88;74.86
53300;BME280;39187;48.476;8.310;2022-12-18T13:48:27;91929.06;;;1.97;76.56
53300;BME280;39187;48.476;8.310;2022-12-18T13:53:32;91933.41;;;1.90;77.93
53300;BME280;39187;48.476;8.310;2022-12-18T13:55:58;91937.00;;;1.66;79.65
53300;BME280;39187;48.476;8.310;2022-12-18T13:58:23;91931.22;;;1.76;78.81
53300;BME280;39187;48.476;8.310;2022-12-18T14:00:49;91929.25;;;1.73;77.02
53300;BME280;39187;48.476;8.310;2022-12-18T14:03:24;91925.75;;;1.50;78.82
53300;BME280;39187;48.476;8.310;2022-12-18T14:06:03;91924.97;;;1.65;78.67
53300;BME280;39187;48.476;8.310;2022-12-18T14:08:49;91930.47;;;1.29;81.04
53300;BME280;39187;48.476;8.310;2022-12-18T14:11:22;91935.88;;;1.36;80.75
53300;BME280;39187;48.476;8.310;2022-12-18T14:13:48;91937.25;;;1.45;79.96
53300;BME280;39187;48.476;8.310;2022-12-18T14:16:15;91924.63;;;1.67;78.57
53300;BME280;39187;48.476;8.310;2022-12-18T14:18:46;91925.31;;;1.32;80.32
53300;BME280;39187;48.476;8.310;2022-12-18T14:21:22;91932.84;;;1.34;81.30
53300;BME280;39187;48.476;8.310;2022-12-18T14:23:48;91937.34;;;1.33;82.42
53300;BME280;39187;48.476;8.310;2022-12-18T14:26:41;91936.97;;;1.19;81.87
53300;BME280;39187;48.476;8.310;2022-12-18T14:29:27;91946.97;;;1.13;82.08
53300;BME280;39187;48.476;8.310;2022-12-18T14:32:13;91945.53;;;1.32;80.72
53300;BME280;39187;48.476;8.310;2022-12-18T14:34:52;91939.03;;;1.26;79.81
53300;BME280;39187;48.476;8.310;2022-12-18T14:37:23;91946.72;;;1.34;79.98
53300;BME280;39187;48.476;8.310;2022-12-18T14:39:58;91948.16;;;1.47;80.68